createdAt,value
2022-11-28T00:00:33.999Z,66.90
2022-11-28T00:05:47.105Z,60.73
2022-11-28T00:08:13.793Z,89.50
2022-11-28T00:10:40.758Z,90.63
2022-11-28T00:13:07.262Z,72.37
2022-11-28T00:15:33.825Z,72.90
2022-11-28T00:18:00.348Z,64.80
2022-11-28T00:20:26.846Z,74.17
2022-11-28T00:22:53.411Z,68.47
2022-11-28T00:25:20.027Z,76.17
2022-11-28T00:27:46.604Z,73.37
2022-11-28T00:30:13.760Z,73.57
2022-11-28T00:32:40.223Z,68.93
2022-11-28T00:35:07.071Z,74.30
2022-11-28T00:37:33.704Z,87.70
2022-11-28T00:40:00.268Z,73.83
2022-11-28T00:42:26.742Z,70.63
2022-11-28T00:44:53.233Z,75.43
2022-11-28T00:47:19.725Z,62.47
2022-11-28T00:49:46.290Z,65.87
2022-11-28T00:52:12.784Z,75.73
2022-11-28T00:54:39.421Z,78.97
2022-11-28T00:57:05.913Z,80.23
2022-11-28T00:59:32.451Z,78.10
2022-11-28T01:01:58.939Z,76.03
2022-11-28T01:04:27.762Z,82.53
2022-11-28T01:06:54.271Z,74.80
2022-11-28T01:09:21.247Z,81.30
2022-11-28T01:11:49.217Z,71.97
2022-11-28T01:14:16.143Z,67.63
2022-11-28T01:16:42.667Z,65.57
2022-11-28T01:19:09.214Z,49.33
2022-11-28T01:21:35.788Z,47.33
2022-11-28T01:24:02.269Z,45.30
2022-11-28T01:26:29.007Z,49.67
2022-11-28T01:28:55.748Z,46.57
2022-11-28T01:31:23.287Z,62.87
2022-11-28T01:33:49.940Z,60.57
2022-11-28T01:36:16.629Z,63.10
2022-11-28T01:38:43.329Z,56.87
2022-11-28T01:41:09.914Z,50.77
2022-11-28T01:46:20.644Z,50.97
2022-11-28T01:48:47.197Z,53.43
2022-11-28T01:51:13.778Z,52.63
2022-11-28T01:53:41.303Z,52.03
2022-11-28T01:56:14.653Z,54.10
2022-11-28T01:58:41.833Z,57.20
2022-11-28T02:01:08.396Z,43.47
2022-11-28T02:03:38.302Z,38.77
2022-11-28T02:06:05.014Z,51.50
2022-11-28T02:08:33.022Z,49.07
2022-11-28T02:13:53.571Z,43.70
2022-11-28T02:19:16.598Z,64.80
2022-11-28T02:24:56.491Z,37.97
2022-11-28T02:27:27.691Z,44.80
2022-11-28T02:30:09.802Z,46.93
2022-11-28T02:35:45.461Z,36.47
2022-11-28T02:41:01.005Z,46.73
2022-11-28T02:46:37.278Z,41.83
2022-11-28T02:49:04.799Z,33.77
2022-11-28T02:51:50.219Z,34.43
2022-11-28T02:54:17.206Z,46.40
2022-11-28T02:56:47.486Z,49.17
2022-11-28T03:02:18.823Z,55.70
2022-11-28T03:07:35.771Z,56.37
2022-11-28T03:10:09.380Z,54.10
2022-11-28T03:12:45.031Z,64.07
2022-11-28T03:18:04.724Z,46.80
2022-11-28T03:20:35.286Z,79.37
2022-11-28T03:23:04.823Z,65.70
2022-11-28T03:25:31.288Z,69.90
2022-11-28T03:30:55.402Z,102.03
2022-11-28T03:36:18.126Z,89.13
2022-11-28T03:41:39.796Z,101.83
2022-11-28T03:44:11.613Z,64.50
2022-11-28T03:46:41.056Z,117.03
2022-11-28T03:49:09.439Z,67.23
2022-11-28T03:51:43.469Z,139.43
2022-11-28T03:54:17.056Z,145.67
2022-11-28T03:59:49.236Z,73.10
2022-11-28T04:05:18.236Z,74.00
2022-11-28T04:07:46.017Z,127.87
2022-11-28T04:10:21.263Z,91.20
2022-11-28T04:12:59.134Z,102.20
2022-11-28T04:15:25.749Z,71.07
2022-11-28T04:17:57.860Z,85.53
2022-11-28T04:20:33.057Z,80.23
2022-11-28T04:23:01.621Z,79.03
2022-11-28T04:25:28.234Z,69.93
2022-11-28T04:27:56.724Z,62.97
2022-11-28T04:30:23.261Z,60.10
2022-11-28T04:32:50.604Z,74.43
2022-11-28T04:35:20.760Z,110.40
2022-11-28T04:37:48.811Z,84.60
2022-11-28T04:40:15.476Z,70.87
2022-11-28T04:42:52.646Z,85.83
2022-11-28T04:45:33.357Z,73.03
2022-11-28T04:47:59.956Z,87.83
2022-11-28T04:50:28.753Z,52.97
2022-11-28T04:52:55.346Z,58.17
2022-11-28T04:55:41.191Z,38.40
2022-11-28T04:58:09.621Z,41.07
2022-11-28T05:00:36.217Z,43.60
2022-11-28T05:05:47.612Z,43.27
2022-11-28T05:10:58.286Z,48.07
2022-11-28T05:16:09.695Z,51.03
2022-11-28T05:18:36.241Z,55.57
2022-11-28T05:21:02.932Z,46.17
2022-11-28T05:23:29.391Z,50.97
2022-11-28T05:25:55.960Z,50.53
2022-11-28T05:28:22.416Z,60.70
2022-11-28T05:30:58.302Z,50.73
2022-11-28T05:33:24.814Z,68.53
2022-11-28T05:35:51.369Z,49.47
2022-11-28T05:41:02.415Z,43.50
2022-11-28T05:43:29.079Z,47.03
2022-11-28T05:45:55.736Z,45.20
2022-11-28T05:48:22.521Z,52.77
2022-11-28T05:50:50.981Z,54.63
2022-11-28T05:53:17.880Z,53.47
2022-11-28T05:55:45.690Z,53.00
2022-11-28T05:58:12.396Z,57.13
2022-11-28T06:00:39.488Z,49.10
2022-11-28T06:03:06.143Z,43.50
2022-11-28T06:05:42.704Z,43.07
2022-11-28T06:08:11.040Z,40.93
2022-11-28T06:10:37.586Z,43.20
2022-11-28T06:13:04.333Z,47.67
2022-11-28T06:15:34.880Z,51.87
2022-11-28T06:18:04.158Z,49.53
2022-11-28T06:20:30.859Z,48.57
2022-11-28T06:22:57.441Z,55.57
2022-11-28T06:25:23.959Z,53.77
2022-11-28T06:27:50.715Z,62.10
2022-11-28T06:30:17.972Z,55.63
2022-11-28T06:35:28.540Z,61.47
2022-11-28T06:37:55.084Z,70.83
2022-11-28T06:40:21.669Z,46.07
2022-11-28T06:42:50.452Z,45.70
2022-11-28T06:45:17.040Z,51.43
2022-11-28T06:47:43.639Z,46.40
2022-11-28T06:50:11.052Z,60.00
2022-11-28T06:52:37.584Z,50.57
2022-11-28T06:55:04.192Z,48.77
2022-11-28T06:57:32.692Z,62.80
2022-11-28T07:02:43.434Z,66.60
2022-11-28T07:05:10.055Z,56.30
2022-11-28T07:07:52.743Z,52.40
2022-11-28T07:10:20.950Z,62.70
2022-11-28T07:12:47.496Z,62.47
2022-11-28T07:15:14.040Z,66.67
2022-11-28T07:17:40.564Z,70.87
2022-11-28T07:20:10.593Z,63.97
2022-11-28T07:22:37.175Z,68.20
2022-11-28T07:25:03.889Z,90.03
2022-11-28T07:27:30.411Z,55.13
2022-11-28T07:29:56.947Z,56.00
2022-11-28T07:32:23.556Z,60.33
2022-11-28T07:34:50.351Z,71.30
2022-11-28T07:37:16.958Z,79.60
2022-11-28T07:39:44.802Z,67.80
2022-11-28T07:42:12.015Z,91.63
2022-11-28T07:44:38.511Z,81.63
2022-11-28T07:47:05.147Z,106.90
2022-11-28T07:49:32.389Z,68.17
2022-11-28T07:51:58.893Z,65.27
2022-11-28T07:54:25.391Z,55.47
2022-11-28T07:59:38.552Z,60.40
2022-11-28T08:02:05.428Z,89.87
2022-11-28T08:04:32.116Z,114.60
2022-11-28T08:06:58.701Z,87.60
2022-11-28T08:09:25.507Z,101.93
2022-11-28T08:11:52.653Z,84.57
2022-11-28T08:14:20.251Z,55.80
2022-11-28T08:16:46.869Z,67.23
2022-11-28T08:19:13.674Z,71.17
2022-11-28T08:21:40.262Z,131.73
2022-11-28T08:24:08.156Z,67.37
2022-11-28T08:26:34.988Z,46.20
2022-11-28T08:31:45.746Z,52.43
2022-11-28T08:36:57.011Z,58.43
2022-11-28T08:39:24.933Z,64.63
2022-11-28T08:41:52.107Z,82.97
2022-11-28T08:44:18.648Z,86.50
2022-11-28T08:46:45.157Z,87.17
2022-11-28T08:49:11.781Z,74.53
2022-11-28T08:51:38.349Z,92.33
2022-11-28T08:54:05.022Z,81.93
2022-11-28T08:56:31.539Z,100.87
2022-11-28T08:58:58.067Z,84.27
2022-11-28T09:01:25.601Z,67.63
2022-11-28T09:03:52.420Z,45.43
2022-11-28T09:06:19.138Z,60.93
2022-11-28T09:11:31.529Z,70.50
2022-11-28T09:16:42.493Z,53.63
2022-11-28T09:19:10.771Z,42.43
2022-11-28T09:21:37.624Z,78.40
2022-11-28T09:24:04.269Z,65.83
2022-11-28T09:26:30.810Z,60.13
2022-11-28T09:28:57.464Z,48.80
2022-11-28T09:31:24.206Z,51.77
2022-11-28T09:33:50.824Z,71.00
2022-11-28T09:36:21.259Z,62.50
2022-11-28T09:38:47.837Z,59.60
2022-11-28T09:44:20.335Z,89.30
2022-11-28T09:46:47.042Z,61.27
2022-11-28T09:49:22.306Z,41.03
2022-11-28T09:51:58.058Z,41.03
2022-11-28T09:54:29.830Z,30.77
2022-11-28T09:56:56.324Z,52.00
2022-11-28T09:59:22.822Z,48.63
2022-11-28T10:01:56.877Z,33.13
2022-11-28T10:04:33.515Z,42.63
2022-11-28T10:07:09.364Z,56.27
2022-11-28T10:09:43.317Z,38.53
2022-11-28T10:12:16.212Z,42.67
2022-11-28T10:15:09.210Z,34.43
2022-11-28T10:17:38.841Z,48.47
2022-11-28T10:20:07.027Z,39.80
2022-11-28T10:22:42.778Z,36.27
2022-11-28T10:25:19.511Z,48.23
2022-11-28T10:27:46.143Z,48.93
2022-11-28T10:30:16.716Z,49.63
2022-11-28T10:32:44.089Z,52.33
2022-11-28T10:35:26.852Z,50.00
2022-11-28T10:37:55.180Z,35.77
2022-11-28T10:40:26.395Z,61.80
2022-11-28T10:42:53.056Z,46.60
2022-11-28T10:45:38.440Z,71.20
2022-11-28T10:48:38.943Z,59.23
2022-11-28T10:51:18.038Z,73.23
2022-11-28T10:53:51.467Z,55.70
2022-11-28T10:59:30.679Z,42.40
2022-11-28T11:01:57.777Z,64.67
2022-11-28T11:04:26.707Z,59.13
2022-11-28T11:07:08.198Z,57.57
2022-11-28T11:09:36.687Z,56.27
2022-11-28T11:12:03.250Z,44.97
2022-11-28T11:14:33.796Z,43.40
2022-11-28T11:17:00.379Z,47.57
2022-11-28T11:19:30.114Z,48.60
2022-11-28T11:21:59.692Z,42.03
2022-11-28T11:24:26.268Z,62.53
2022-11-28T11:26:52.815Z,36.13
2022-11-28T11:29:23.291Z,35.17
2022-11-28T11:34:38.652Z,39.93
2022-11-28T11:37:40.794Z,30.10
2022-11-28T11:40:26.625Z,30.47
2022-11-28T11:42:57.012Z,26.53
2022-11-28T11:45:27.717Z,42.90
2022-11-28T11:47:54.364Z,39.47
2022-11-28T11:50:22.059Z,34.03
2022-11-28T11:53:13.901Z,33.60
2022-11-28T11:55:48.863Z,41.00
2022-11-28T11:58:16.633Z,34.57
2022-11-28T12:00:43.216Z,34.33
2022-11-28T12:03:13.163Z,35.60
2022-11-28T12:06:06.510Z,31.37
2022-11-28T12:08:43.989Z,30.50
2022-11-28T12:11:13.551Z,30.17
2022-11-28T12:13:40.122Z,25.03
2022-11-28T12:16:09.832Z,26.30
2022-11-28T12:18:52.970Z,30.90
2022-11-28T12:21:22.411Z,31.77
2022-11-28T12:23:49.107Z,31.40
2022-11-28T12:26:35.975Z,28.20
2022-11-28T12:29:06.445Z,27.63
2022-11-28T12:31:39.469Z,26.93
2022-11-28T12:34:09.177Z,29.47
2022-11-28T12:36:41.532Z,30.13
2022-11-28T12:39:18.640Z,27.10
2022-11-28T12:41:45.206Z,25.83
2022-11-28T12:44:15.725Z,26.67
2022-11-28T12:46:42.359Z,23.53
2022-11-28T12:49:08.922Z,24.53
2022-11-28T12:51:41.680Z,26.50
2022-11-28T12:54:14.087Z,34.00
2022-11-28T12:56:43.563Z,29.07
2022-11-28T12:59:26.022Z,30.67
2022-11-28T13:01:52.698Z,30.73
2022-11-28T13:04:41.609Z,31.03
2022-11-28T13:07:21.379Z,37.47
2022-11-28T13:12:50.870Z,28.73
2022-11-28T13:15:24.557Z,34.07
2022-11-28T13:17:55.466Z,31.07
2022-11-28T13:20:28.235Z,33.57
2022-11-28T13:23:16.807Z,30.77
2022-11-28T13:25:43.467Z,27.50
2022-11-28T13:28:13.337Z,33.23
2022-11-28T13:33:30.936Z,35.00
2022-11-28T13:35:57.933Z,26.93
2022-11-28T13:38:57.431Z,30.07
2022-11-28T13:44:24.429Z,31.03
2022-11-28T13:46:56.826Z,32.43
2022-11-28T13:49:27.032Z,29.70
2022-11-28T13:55:35.781Z,30.00
2022-11-28T13:58:16.467Z,25.70
2022-11-28T14:00:43.525Z,33.33
2022-11-28T14:03:19.582Z,61.03
2022-11-28T14:05:46.521Z,28.73
2022-11-28T14:08:25.777Z,36.20
2022-11-28T14:10:58.504Z,63.07
2022-11-28T14:16:30.934Z,49.80
2022-11-28T14:19:09.434Z,61.43
2022-11-28T14:21:35.939Z,72.73
2022-11-28T14:24:02.434Z,106.53
2022-11-28T14:26:34.574Z,44.90
2022-11-28T14:29:01.648Z,64.77
2022-11-28T14:31:32.670Z,59.40
2022-11-28T14:34:01.531Z,95.43
2022-11-28T14:36:34.677Z,86.77
2022-11-28T14:39:01.572Z,67.33
2022-11-28T14:41:29.173Z,54.33
2022-11-28T14:43:55.733Z,53.40
2022-11-28T14:46:30.527Z,61.83
2022-11-28T14:48:58.591Z,52.20
2022-11-28T14:51:44.034Z,45.63
2022-11-28T14:54:26.526Z,68.53
2022-11-28T14:59:37.787Z,55.60
2022-11-28T15:02:10.589Z,58.73
2022-11-28T15:04:49.106Z,56.00
2022-11-28T15:07:19.578Z,50.13
2022-11-28T15:09:51.906Z,81.30
2022-11-28T15:12:40.862Z,78.90
2022-11-28T15:15:10.639Z,77.53
2022-11-28T15:17:38.809Z,61.40
2022-11-28T15:20:09.739Z,72.57
2022-11-28T15:22:40.007Z,102.03
2022-11-28T15:25:27.687Z,89.33
2022-11-28T15:27:57.525Z,71.93
2022-11-28T15:30:26.791Z,107.17
2022-11-28T15:32:58.217Z,87.17
2022-11-28T15:35:24.890Z,72.93
2022-11-28T15:37:53.147Z,54.67
2022-11-28T15:40:28.312Z,67.37
2022-11-28T15:42:56.110Z,54.30
2022-11-28T15:45:29.416Z,54.70
2022-11-28T15:47:56.378Z,59.97
2022-11-28T15:50:25.215Z,61.77
2022-11-28T15:53:02.425Z,72.60
2022-11-28T15:55:30.859Z,67.63
2022-11-28T15:58:10.881Z,63.57
2022-11-28T16:00:39.581Z,45.90
2022-11-28T16:03:06.248Z,83.63
2022-11-28T16:05:33.047Z,51.43
2022-11-28T16:07:59.719Z,66.80
2022-11-28T16:10:28.835Z,89.37
2022-11-28T16:13:00.803Z,45.50
2022-11-28T16:15:27.839Z,45.33
2022-11-28T16:17:57.270Z,63.43
2022-11-28T16:20:26.045Z,71.90
2022-11-28T16:23:06.299Z,66.57
2022-11-28T16:25:33.100Z,76.10
2022-11-28T16:27:59.967Z,90.33
2022-11-28T16:30:37.151Z,79.57
2022-11-28T16:33:23.936Z,101.37
2022-11-28T16:35:50.652Z,83.30
2022-11-28T16:38:24.191Z,75.13
2022-11-28T16:40:51.794Z,82.33
2022-11-28T16:43:24.316Z,66.03
2022-11-28T16:46:00.581Z,68.80
2022-11-28T16:48:28.791Z,71.20
2022-11-28T16:51:11.894Z,55.40
2022-11-28T16:53:39.010Z,73.33
2022-11-28T16:56:06.420Z,60.73
2022-11-28T16:58:33.459Z,57.50
2022-11-28T17:01:00.901Z,57.20
2022-11-28T17:03:44.519Z,59.97
2022-11-28T17:06:14.067Z,62.13
2022-11-28T17:08:40.839Z,62.67
2022-11-28T17:11:08.168Z,56.60
2022-11-28T17:13:34.808Z,54.07
2022-11-28T17:16:01.663Z,62.60
2022-11-28T17:18:28.556Z,53.73
2022-11-28T17:20:55.259Z,54.57
2022-11-28T17:23:25.448Z,62.13
2022-11-28T17:25:52.269Z,56.27
2022-11-28T17:28:22.328Z,66.03
2022-11-28T17:30:51.039Z,65.33
2022-11-28T17:33:17.553Z,62.63
2022-11-28T17:35:46.941Z,63.20
2022-11-28T17:38:13.535Z,61.60
2022-11-28T17:40:42.323Z,53.40
2022-11-28T17:43:18.502Z,47.87
2022-11-28T17:45:45.252Z,51.93
2022-11-28T17:48:16.148Z,53.70
2022-11-28T17:50:45.087Z,60.13
2022-11-28T17:53:13.015Z,59.57
2022-11-28T17:55:40.819Z,56.30
2022-11-28T18:00:59.965Z,60.27
2022-11-28T18:03:27.618Z,51.50
2022-11-28T18:05:55.809Z,53.40
2022-11-28T18:08:22.645Z,54.07
2022-11-28T18:10:49.479Z,59.13
2022-11-28T18:13:17.741Z,56.40
2022-11-28T18:15:45.566Z,54.50
2022-11-28T18:18:13.104Z,54.30
2022-11-28T18:20:39.928Z,54.87
2022-11-28T18:23:11.899Z,48.97
2022-11-28T18:28:27.413Z,49.80
2022-11-28T18:30:54.049Z,56.27
2022-11-28T18:33:20.614Z,55.73
2022-11-28T18:35:47.205Z,51.93
2022-11-28T18:38:15.241Z,49.47
2022-11-28T18:40:41.858Z,51.03
2022-11-28T18:43:08.570Z,51.17
2022-11-28T18:45:35.403Z,51.17
2022-11-28T18:48:02.758Z,55.30
2022-11-28T18:50:30.040Z,57.70
2022-11-28T18:52:57.022Z,55.70
2022-11-28T18:55:24.206Z,53.50
2022-11-28T18:57:50.941Z,53.17
2022-11-28T19:03:02.376Z,51.70
2022-11-28T19:05:31.136Z,54.40
2022-11-28T19:08:00.824Z,55.00
2022-11-28T19:10:27.601Z,52.00
2022-11-28T19:12:54.850Z,47.50
2022-11-28T19:15:23.195Z,48.37
2022-11-28T19:17:49.997Z,47.23
2022-11-28T19:20:17.785Z,50.27
2022-11-28T19:22:44.836Z,50.27
2022-11-28T19:25:12.530Z,47.90
2022-11-28T19:27:40.112Z,53.03
2022-11-28T19:30:07.321Z,54.77
2022-11-28T19:32:34.186Z,53.80
2022-11-28T19:35:01.998Z,53.23
2022-11-28T19:37:29.778Z,51.20
2022-11-28T19:40:01.057Z,47.10
2022-11-28T19:45:14.677Z,46.73
2022-11-28T19:50:28.353Z,49.10
2022-11-28T19:55:39.130Z,48.23
2022-11-28T19:58:05.955Z,47.90
2022-11-28T20:00:33.271Z,41.87
2022-11-28T20:03:00.597Z,45.53
2022-11-28T20:05:29.879Z,39.47
2022-11-28T20:07:58.768Z,41.97
2022-11-28T20:10:25.941Z,44.07
2022-11-28T20:15:38.391Z,45.23
2022-11-28T20:18:05.617Z,44.40
2022-11-28T20:20:33.809Z,44.17
2022-11-28T20:23:00.956Z,45.53
2022-11-28T20:25:27.742Z,43.43
2022-11-28T20:27:56.576Z,43.73
2022-11-28T20:30:23.366Z,40.77
2022-11-28T20:32:50.250Z,46.83
2022-11-28T20:35:19.473Z,41.43
2022-11-28T20:37:46.116Z,48.10
2022-11-28T20:40:13.258Z,52.10
2022-11-28T20:42:40.322Z,46.83
2022-11-28T20:45:07.358Z,43.37
2022-11-28T20:50:21.485Z,48.40
2022-11-28T20:52:49.723Z,45.97
2022-11-28T20:55:16.902Z,45.13
2022-11-28T20:57:45.043Z,47.17
2022-11-28T21:00:15.850Z,50.30
2022-11-28T21:02:44.787Z,48.87
2022-11-28T21:05:14.862Z,47.63
2022-11-28T21:10:28.896Z,45.90
2022-11-28T21:12:59.179Z,50.63
2022-11-28T21:15:27.653Z,49.40
2022-11-28T21:17:55.206Z,49.27
2022-11-28T21:20:26.561Z,48.90
2022-11-28T21:22:54.064Z,48.87
2022-11-28T21:25:25.551Z,55.00
2022-11-28T21:30:40.002Z,50.87
2022-11-28T21:33:06.643Z,51.93
2022-11-28T21:35:36.088Z,50.67
2022-11-28T21:38:02.728Z,49.70
2022-11-28T21:40:29.468Z,52.57
2022-11-28T21:42:56.701Z,53.20
2022-11-28T21:45:24.171Z,52.33
2022-11-28T21:47:51.992Z,56.10
2022-11-28T21:50:18.662Z,57.50
2022-11-28T21:52:47.778Z,53.13
2022-11-28T21:57:59.946Z,58.17
2022-11-28T22:00:52.050Z,54.47
2022-11-28T22:03:14.583Z,55.53
2022-11-28T22:05:42.373Z,50.70
2022-11-28T22:08:10.767Z,49.40
2022-11-28T22:10:37.588Z,51.73
2022-11-28T22:13:04.376Z,54.03
2022-11-28T22:15:32.094Z,48.73
2022-11-28T22:17:58.787Z,53.97
2022-11-28T22:23:09.840Z,50.13
2022-11-28T22:25:36.658Z,53.70
2022-11-28T22:28:03.227Z,52.20
2022-11-28T22:30:30.194Z,56.23
2022-11-28T22:35:41.414Z,52.97
2022-11-28T22:38:08.153Z,51.93
2022-11-28T22:40:34.905Z,51.27
2022-11-28T22:43:01.743Z,51.33
2022-11-28T22:45:28.399Z,56.83
2022-11-28T22:47:55.299Z,53.07
2022-11-28T22:50:21.956Z,59.00
2022-11-28T22:52:48.480Z,55.40
2022-11-28T22:55:16.305Z,53.77
2022-11-28T22:57:42.805Z,55.23
2022-11-28T23:00:10.075Z,54.10
2022-11-28T23:02:37.269Z,57.30
2022-11-28T23:05:04.885Z,56.90
2022-11-28T23:07:31.758Z,62.00
2022-11-28T23:09:58.477Z,56.70
2022-11-28T23:12:25.146Z,58.80
2022-11-28T23:17:35.888Z,58.80
2022-11-28T23:20:03.241Z,55.87
2022-11-28T23:22:29.968Z,58.77
2022-11-28T23:24:57.448Z,61.70
2022-11-28T23:30:08.473Z,56.63
2022-11-28T23:32:34.980Z,58.17
2022-11-28T23:35:04.271Z,62.10
2022-11-28T23:37:30.877Z,54.97
2022-11-28T23:42:41.853Z,55.27
2022-11-28T23:47:52.924Z,53.80
2022-11-28T23:50:19.589Z,57.57
2022-11-28T23:52:46.249Z,53.73
2022-11-28T23:55:12.823Z,53.63
2022-11-28T23:57:39.369Z,53.67
